sensor_id;sensor_type;location;lat;lon;timestamp;temperature;humidity
29295;DHT22;16305;48.566;8.846;2023-04-09T00:01:09;4.90;99.90
29295;DHT22;16305;48.566;8.846;2023-04-09T00:03:35;5.10;99.90
29295;DHT22;16305;48.566;8.846;2023-04-09T00:06:01;5.20;99.90
29295;DHT22;16305;48.566;8.846;2023-04-09T00:08:26;5.30;99.90
29295;DHT22;16305;48.566;8.846;2023-04-09T00:10:52;5.30;99.90
29295;DHT22;16305;48.566;8.846;2023-04-09T00:13:18;5.30;99.90
29295;DHT22;16305;48.566;8.846;2023-04-09T00:15:45;5.30;99.90
29295;DHT22;16305;48.566;8.846;2023-04-09T00:18:10;5.30;99.90
29295;DHT22;16305;48.566;8.846;2023-04-09T00:20:36;5.30;99.90
29295;DHT22;16305;48.566;8.846;2023-04-09T00:23:02;5.40;99.90
29295;DHT22;16305;48.566;8.846;2023-04-09T00:25:27;5.40;99.90
29295;DHT22;16305;48.566;8.846;2023-04-09T00:27:54;5.40;99.90
29295;DHT22;16305;48.566;8.846;2023-04-09T00:30:19;5.30;99.90
29295;DHT22;16305;48.566;8.846;2023-04-09T00:32:45;5.30;99.90
29295;DHT22;16305;48.566;8.846;2023-04-09T00:35:11;5.30;99.90
29295;DHT22;16305;48.566;8.846;2023-04-09T00:37:36;5.30;99.90
29295;DHT22;16305;48.566;8.846;2023-04-09T00:40:02;5.30;99.90
29295;DHT22;16305;48.566;8.846;2023-04-09T00:42:32;5.30;99.90
29295;DHT22;16305;48.566;8.846;2023-04-09T00:44:58;5.30;99.90
29295;DHT22;16305;48.566;8.846;2023-04-09T00:47:24;5.30;99.90
29295;DHT22;16305;48.566;8.846;2023-04-09T00:49:51;5.40;99.90
29295;DHT22;16305;48.566;8.846;2023-04-09T00:52:17;5.30;99.90
29295;DHT22;16305;48.566;8.846;2023-04-09T00:54:42;5.30;99.90
29295;DHT22;16305;48.566;8.846;2023-04-09T00:57:08;5.30;99.90
29295;DHT22;16305;48.566;8.846;2023-04-09T00:59:35;5.20;99.90
29295;DHT22;16305;48.566;8.846;2023-04-09T01:02:01;5.20;99.90
29295;DHT22;16305;48.566;8.846;2023-04-09T01:04:26;5.20;99.90
29295;DHT22;16305;48.566;8.846;2023-04-09T01:06:58;5.30;99.90
29295;DHT22;16305;48.566;8.846;2023-04-09T01:09:34;5.20;99.90
29295;DHT22;16305;48.566;8.846;2023-04-09T01:12:20;5.20;99.90
29295;DHT22;16305;48.566;8.846;2023-04-09T01:15:10;5.30;99.90
29295;DHT22;16305;48.566;8.846;2023-04-09T01:17:44;5.30;99.90
29295;DHT22;16305;48.566;8.846;2023-04-09T01:20:39;5.30;99.90
29295;DHT22;16305;48.566;8.846;2023-04-09T01:23:15;5.30;99.90
29295;DHT22;16305;48.566;8.846;2023-04-09T01:25:44;5.30;99.90
29295;DHT22;16305;48.566;8.846;2023-04-09T01:31:25;4.90;99.90
29295;DHT22;16305;48.566;8.846;2023-04-09T01:33:43;4.80;99.90
29295;DHT22;16305;48.566;8.846;2023-04-09T01:36:09;4.80;99.90
29295;DHT22;16305;48.566;8.846;2023-04-09T01:38:38;4.70;99.90
29295;DHT22;16305;48.566;8.846;2023-04-09T01:41:06;4.60;99.90
29295;DHT22;16305;48.566;8.846;2023-04-09T01:43:32;4.70;99.90
29295;DHT22;16305;48.566;8.846;2023-04-09T01:46:00;5.00;99.90
29295;DHT22;16305;48.566;8.846;2023-04-09T01:48:27;5.20;99.90
29295;DHT22;16305;48.566;8.846;2023-04-09T01:50:53;5.20;99.90
29295;DHT22;16305;48.566;8.846;2023-04-09T01:53:20;5.20;99.90
29295;DHT22;16305;48.566;8.846;2023-04-09T01:55:46;5.30;99.90
29295;DHT22;16305;48.566;8.846;2023-04-09T01:58:12;5.20;99.90
29295;DHT22;16305;48.566;8.846;2023-04-09T02:00:39;5.20;99.90
29295;DHT22;16305;48.566;8.846;2023-04-09T02:05:37;5.00;99.90
29295;DHT22;16305;48.566;8.846;2023-04-09T02:08:06;5.00;99.90
29295;DHT22;16305;48.566;8.846;2023-04-09T02:10:35;5.00;99.90
29295;DHT22;16305;48.566;8.846;2023-04-09T02:13:04;5.30;99.90
29295;DHT22;16305;48.566;8.846;2023-04-09T02:15:31;5.40;99.90
29295;DHT22;16305;48.566;8.846;2023-04-09T02:17:58;5.30;99.90
29295;DHT22;16305;48.566;8.846;2023-04-09T02:20:24;5.40;99.90
29295;DHT22;16305;48.566;8.846;2023-04-09T02:22:49;5.30;99.90
29295;DHT22;16305;48.566;8.846;2023-04-09T02:25:15;5.30;99.90
29295;DHT22;16305;48.566;8.846;2023-04-09T02:27:40;5.20;99.90
29295;DHT22;16305;48.566;8.846;2023-04-09T02:30:06;5.20;99.90
29295;DHT22;16305;48.566;8.846;2023-04-09T02:32:32;5.20;99.90
29295;DHT22;16305;48.566;8.846;2023-04-09T02:34:57;5.30;99.90
29295;DHT22;16305;48.566;8.846;2023-04-09T02:37:23;5.30;99.90
29295;DHT22;16305;48.566;8.846;2023-04-09T02:39:48;5.30;99.90
29295;DHT22;16305;48.566;8.846;2023-04-09T02:42:14;5.30;99.90
29295;DHT22;16305;48.566;8.846;2023-04-09T02:44:39;5.30;99.90
29295;DHT22;16305;48.566;8.846;2023-04-09T02:47:05;5.20;99.90
29295;DHT22;16305;48.566;8.846;2023-04-09T02:49:30;5.20;99.90
29295;DHT22;16305;48.566;8.846;2023-04-09T02:51:56;5.20;99.90
29295;DHT22;16305;48.566;8.846;2023-04-09T02:54:21;5.10;99.90
29295;DHT22;16305;48.566;8.846;2023-04-09T02:56:47;5.10;99.90
29295;DHT22;16305;48.566;8.846;2023-04-09T02:59:12;5.20;99.90
29295;DHT22;16305;48.566;8.846;2023-04-09T03:01:38;5.10;99.90
29295;DHT22;16305;48.566;8.846;2023-04-09T03:04:03;5.10;99.90
29295;DHT22;16305;48.566;8.846;2023-04-09T03:06:29;5.20;99.90
29295;DHT22;16305;48.566;8.846;2023-04-09T03:08:55;5.10;99.90
29295;DHT22;16305;48.566;8.846;2023-04-09T03:11:20;5.00;99.90
29295;DHT22;16305;48.566;8.846;2023-04-09T03:13:46;4.90;99.90
29295;DHT22;16305;48.566;8.846;2023-04-09T03:16:11;4.80;99.90
29295;DHT22;16305;48.566;8.846;2023-04-09T03:18:37;4.70;99.90
29295;DHT22;16305;48.566;8.846;2023-04-09T03:21:06;4.60;99.90
29295;DHT22;16305;48.566;8.846;2023-04-09T03:23:32;4.50;99.90
29295;DHT22;16305;48.566;8.846;2023-04-09T03:26:03;4.40;99.90
29295;DHT22;16305;48.566;8.846;2023-04-09T03:28:29;4.30;99.90
29295;DHT22;16305;48.566;8.846;2023-04-09T03:30:55;4.30;99.90
29295;DHT22;16305;48.566;8.846;2023-04-09T03:33:21;4.30;99.90
29295;DHT22;16305;48.566;8.846;2023-04-09T03:35:46;4.20;99.90
29295;DHT22;16305;48.566;8.846;2023-04-09T03:38:12;4.20;99.90
29295;DHT22;16305;48.566;8.846;2023-04-09T03:40:37;4.10;99.90
29295;DHT22;16305;48.566;8.846;2023-04-09T03:43:03;4.10;99.90
29295;DHT22;16305;48.566;8.846;2023-04-09T03:45:29;4.00;99.90
29295;DHT22;16305;48.566;8.846;2023-04-09T03:47:54;4.00;99.90
29295;DHT22;16305;48.566;8.846;2023-04-09T03:50:20;4.00;99.90
29295;DHT22;16305;48.566;8.846;2023-04-09T03:52:46;4.00;99.90
29295;DHT22;16305;48.566;8.846;2023-04-09T03:55:11;4.00;99.90
29295;DHT22;16305;48.566;8.846;2023-04-09T03:57:37;3.90;99.90
29295;DHT22;16305;48.566;8.846;2023-04-09T04:00:03;3.80;99.90
29295;DHT22;16305;48.566;8.846;2023-04-09T04:02:28;3.70;99.90
29295;DHT22;16305;48.566;8.846;2023-04-09T04:04:58;3.70;99.90
29295;DHT22;16305;48.566;8.846;2023-04-09T04:07:23;3.80;99.90
29295;DHT22;16305;48.566;8.846;2023-04-09T04:09:49;3.80;99.90
29295;DHT22;16305;48.566;8.846;2023-04-09T04:12:14;3.90;99.90
29295;DHT22;16305;48.566;8.846;2023-04-09T04:14:40;3.90;99.90
29295;DHT22;16305;48.566;8.846;2023-04-09T04:17:05;3.90;99.90
29295;DHT22;16305;48.566;8.846;2023-04-09T04:19:31;4.00;99.90
29295;DHT22;16305;48.566;8.846;2023-04-09T04:21:56;4.00;99.90
29295;DHT22;16305;48.566;8.846;2023-04-09T04:24:22;4.00;99.90
29295;DHT22;16305;48.566;8.846;2023-04-09T04:26:48;4.10;99.90
29295;DHT22;16305;48.566;8.846;2023-04-09T04:29:14;4.10;99.90
29295;DHT22;16305;48.566;8.846;2023-04-09T04:31:39;4.10;99.90
29295;DHT22;16305;48.566;8.846;2023-04-09T04:34:05;4.10;99.90
29295;DHT22;16305;48.566;8.846;2023-04-09T04:36:30;4.10;99.90
29295;DHT22;16305;48.566;8.846;2023-04-09T04:38:56;4.10;99.90
29295;DHT22;16305;48.566;8.846;2023-04-09T04:41:21;4.20;99.90
29295;DHT22;16305;48.566;8.846;2023-04-09T04:43:47;4.30;99.90
29295;DHT22;16305;48.566;8.846;2023-04-09T04:46:12;4.30;99.90
29295;DHT22;16305;48.566;8.846;2023-04-09T04:48:38;4.40;99.90
29295;DHT22;16305;48.566;8.846;2023-04-09T04:51:03;4.30;99.90
29295;DHT22;16305;48.566;8.846;2023-04-09T04:53:29;4.30;99.90
29295;DHT22;16305;48.566;8.846;2023-04-09T04:55:55;4.30;99.90
29295;DHT22;16305;48.566;8.846;2023-04-09T04:58:20;4.40;99.90
29295;DHT22;16305;48.566;8.846;2023-04-09T05:00:46;4.50;99.90
29295;DHT22;16305;48.566;8.846;2023-04-09T05:03:12;4.70;99.90
29295;DHT22;16305;48.566;8.846;2023-04-09T05:05:37;4.90;99.90
29295;DHT22;16305;48.566;8.846;2023-04-09T05:08:03;4.90;99.90
29295;DHT22;16305;48.566;8.846;2023-04-09T05:10:29;4.80;99.90
29295;DHT22;16305;48.566;8.846;2023-04-09T05:12:55;4.80;99.90
29295;DHT22;16305;48.566;8.846;2023-04-09T05:15:20;4.70;99.90
29295;DHT22;16305;48.566;8.846;2023-04-09T05:17:46;4.60;99.90
29295;DHT22;16305;48.566;8.846;2023-04-09T05:20:11;4.60;99.90
29295;DHT22;16305;48.566;8.846;2023-04-09T05:22:37;4.60;99.90
29295;DHT22;16305;48.566;8.846;2023-04-09T05:25:03;4.60;99.90
29295;DHT22;16305;48.566;8.846;2023-04-09T05:27:28;4.70;99.90
29295;DHT22;16305;48.566;8.846;2023-04-09T05:29:54;4.90;99.90
29295;DHT22;16305;48.566;8.846;2023-04-09T05:32:20;5.10;99.90
29295;DHT22;16305;48.566;8.846;2023-04-09T05:34:45;5.20;99.90
29295;DHT22;16305;48.566;8.846;2023-04-09T05:37:11;5.10;99.90
29295;DHT22;16305;48.566;8.846;2023-04-09T05:39:37;5.20;99.90
29295;DHT22;16305;48.566;8.846;2023-04-09T05:42:02;5.20;99.90
29295;DHT22;16305;48.566;8.846;2023-04-09T05:44:28;5.20;99.90
29295;DHT22;16305;48.566;8.846;2023-04-09T05:46:53;5.20;99.90
29295;DHT22;16305;48.566;8.846;2023-04-09T05:49:19;5.20;99.90
29295;DHT22;16305;48.566;8.846;2023-04-09T05:51:44;5.20;99.90
29295;DHT22;16305;48.566;8.846;2023-04-09T05:54:11;5.20;99.90
29295;DHT22;16305;48.566;8.846;2023-04-09T05:56:36;5.30;99.90
29295;DHT22;16305;48.566;8.846;2023-04-09T05:59:02;5.40;99.90
29295;DHT22;16305;48.566;8.846;2023-04-09T06:01:27;5.50;99.90
29295;DHT22;16305;48.566;8.846;2023-04-09T06:03:53;5.50;99.90
29295;DHT22;16305;48.566;8.846;2023-04-09T06:06:19;5.40;99.90
29295;DHT22;16305;48.566;8.846;2023-04-09T06:08:45;5.50;99.90
29295;DHT22;16305;48.566;8.846;2023-04-09T06:11:11;5.50;99.90
29295;DHT22;16305;48.566;8.846;2023-04-09T06:13:37;5.50;99.90
29295;DHT22;16305;48.566;8.846;2023-04-09T06:16:07;5.70;99.90
29295;DHT22;16305;48.566;8.846;2023-04-09T06:18:33;5.90;99.90
29295;DHT22;16305;48.566;8.846;2023-04-09T06:21:02;5.90;99.90
29295;DHT22;16305;48.566;8.846;2023-04-09T06:23:28;5.90;99.90
29295;DHT22;16305;48.566;8.846;2023-04-09T06:25:54;6.00;99.90
29295;DHT22;16305;48.566;8.846;2023-04-09T06:28:19;6.00;99.90
29295;DHT22;16305;48.566;8.846;2023-04-09T06:30:45;6.10;99.90
29295;DHT22;16305;48.566;8.846;2023-04-09T06:33:11;6.10;99.90
29295;DHT22;16305;48.566;8.846;2023-04-09T06:35:36;6.10;99.90
29295;DHT22;16305;48.566;8.846;2023-04-09T06:38:02;6.30;99.90
29295;DHT22;16305;48.566;8.846;2023-04-09T06:40:27;6.30;99.90
29295;DHT22;16305;48.566;8.846;2023-04-09T06:42:53;6.10;99.90
29295;DHT22;16305;48.566;8.846;2023-04-09T06:45:18;6.00;99.90
29295;DHT22;16305;48.566;8.846;2023-04-09T06:47:44;6.20;99.90
29295;DHT22;16305;48.566;8.846;2023-04-09T06:50:10;6.40;99.90
29295;DHT22;16305;48.566;8.846;2023-04-09T06:52:35;6.50;99.90
29295;DHT22;16305;48.566;8.846;2023-04-09T06:55:01;6.60;99.90
29295;DHT22;16305;48.566;8.846;2023-04-09T06:57:26;6.70;99.90
29295;DHT22;16305;48.566;8.846;2023-04-09T06:59:52;6.60;99.90
29295;DHT22;16305;48.566;8.846;2023-04-09T07:02:17;6.50;99.90
29295;DHT22;16305;48.566;8.846;2023-04-09T07:04:43;6.40;99.90
29295;DHT22;16305;48.566;8.846;2023-04-09T07:07:08;6.30;99.90
29295;DHT22;16305;48.566;8.846;2023-04-09T07:09:34;6.40;99.90
29295;DHT22;16305;48.566;8.846;2023-04-09T07:12:00;6.50;99.90
29295;DHT22;16305;48.566;8.846;2023-04-09T07:14:26;6.80;99.90
29295;DHT22;16305;48.566;8.846;2023-04-09T07:16:51;7.00;99.90
29295;DHT22;16305;48.566;8.846;2023-04-09T07:19:17;7.20;99.90
29295;DHT22;16305;48.566;8.846;2023-04-09T07:21:42;7.30;99.90
29295;DHT22;16305;48.566;8.846;2023-04-09T07:24:08;7.30;99.90
29295;DHT22;16305;48.566;8.846;2023-04-09T07:26:33;7.40;99.90
29295;DHT22;16305;48.566;8.846;2023-04-09T07:28:59;7.50;99.90
29295;DHT22;16305;48.566;8.846;2023-04-09T07:31:24;7.40;99.90
29295;DHT22;16305;48.566;8.846;2023-04-09T07:33:50;7.40;99.90
29295;DHT22;16305;48.566;8.846;2023-04-09T07:36:15;7.50;99.90
29295;DHT22;16305;48.566;8.846;2023-04-09T07:38:41;7.40;99.90
29295;DHT22;16305;48.566;8.846;2023-04-09T07:41:10;7.40;99.90
29295;DHT22;16305;48.566;8.846;2023-04-09T07:43:35;7.50;99.90
29295;DHT22;16305;48.566;8.846;2023-04-09T07:46:01;7.60;99.90
29295;DHT22;16305;48.566;8.846;2023-04-09T07:48:26;7.80;99.90
29295;DHT22;16305;48.566;8.846;2023-04-09T07:50:52;7.70;99.90
29295;DHT22;16305;48.566;8.846;2023-04-09T07:53:18;7.90;99.90
29295;DHT22;16305;48.566;8.846;2023-04-09T07:55:43;8.10;99.90
29295;DHT22;16305;48.566;8.846;2023-04-09T07:58:09;8.30;99.90
29295;DHT22;16305;48.566;8.846;2023-04-09T08:00:34;8.30;99.90
29295;DHT22;16305;48.566;8.846;2023-04-09T08:03:00;8.40;99.90
29295;DHT22;16305;48.566;8.846;2023-04-09T08:05:28;8.40;99.90
29295;DHT22;16305;48.566;8.846;2023-04-09T08:07:53;8.50;99.90
29295;DHT22;16305;48.566;8.846;2023-04-09T08:10:19;8.50;99.90
29295;DHT22;16305;48.566;8.846;2023-04-09T08:12:46;8.60;99.90
29295;DHT22;16305;48.566;8.846;2023-04-09T08:15:12;8.70;99.90
29295;DHT22;16305;48.566;8.846;2023-04-09T08:17:38;8.70;99.90
29295;DHT22;16305;48.566;8.846;2023-04-09T08:20:04;8.70;99.90
29295;DHT22;16305;48.566;8.846;2023-04-09T08:22:30;8.70;99.90
29295;DHT22;16305;48.566;8.846;2023-04-09T08:24:56;8.90;99.90
29295;DHT22;16305;48.566;8.846;2023-04-09T08:27:22;9.00;99.90
29295;DHT22;16305;48.566;8.846;2023-04-09T08:29:48;9.10;99.90
29295;DHT22;16305;48.566;8.846;2023-04-09T08:32:13;9.20;99.90
29295;DHT22;16305;48.566;8.846;2023-04-09T08:34:39;9.20;99.90
29295;DHT22;16305;48.566;8.846;2023-04-09T08:37:05;9.30;99.90
29295;DHT22;16305;48.566;8.846;2023-04-09T08:39:31;9.40;99.90
29295;DHT22;16305;48.566;8.846;2023-04-09T08:41:58;9.40;99.90
29295;DHT22;16305;48.566;8.846;2023-04-09T08:44:27;9.40;99.90
29295;DHT22;16305;48.566;8.846;2023-04-09T08:46:53;9.30;99.90
29295;DHT22;16305;48.566;8.846;2023-04-09T08:49:20;9.40;99.90
29295;DHT22;16305;48.566;8.846;2023-04-09T08:51:47;9.40;99.90
29295;DHT22;16305;48.566;8.846;2023-04-09T08:54:17;9.20;99.90
29295;DHT22;16305;48.566;8.846;2023-04-09T08:56:45;9.20;99.90
29295;DHT22;16305;48.566;8.846;2023-04-09T08:59:14;9.60;99.90
29295;DHT22;16305;48.566;8.846;2023-04-09T09:01:41;9.70;99.90
29295;DHT22;16305;48.566;8.846;2023-04-09T09:04:08;9.90;99.90
29295;DHT22;16305;48.566;8.846;2023-04-09T09:06:38;10.00;99.90
29295;DHT22;16305;48.566;8.846;2023-04-09T09:09:15;10.00;99.90
29295;DHT22;16305;48.566;8.846;2023-04-09T09:11:45;10.00;99.90
29295;DHT22;16305;48.566;8.846;2023-04-09T09:14:13;10.10;99.90
29295;DHT22;16305;48.566;8.846;2023-04-09T09:16:40;10.10;99.90
29295;DHT22;16305;48.566;8.846;2023-04-09T09:19:28;10.10;99.90
29295;DHT22;16305;48.566;8.846;2023-04-09T09:22:03;10.10;99.90
29295;DHT22;16305;48.566;8.846;2023-04-09T09:24:29;10.20;99.90
29295;DHT22;16305;48.566;8.846;2023-04-09T09:26:56;10.20;99.90
29295;DHT22;16305;48.566;8.846;2023-04-09T09:29:23;10.20;99.90
29295;DHT22;16305;48.566;8.846;2023-04-09T09:31:50;10.30;99.90
29295;DHT22;16305;48.566;8.846;2023-04-09T09:34:17;10.40;99.90
29295;DHT22;16305;48.566;8.846;2023-04-09T09:36:43;10.40;99.90
29295;DHT22;16305;48.566;8.846;2023-04-09T09:39:10;10.40;99.90
29295;DHT22;16305;48.566;8.846;2023-04-09T09:41:38;10.40;99.90
29295;DHT22;16305;48.566;8.846;2023-04-09T09:44:04;10.30;99.90
29295;DHT22;16305;48.566;8.846;2023-04-09T09:46:39;10.20;99.90
29295;DHT22;16305;48.566;8.846;2023-04-09T09:49:07;10.20;99.90
29295;DHT22;16305;48.566;8.846;2023-04-09T09:51:35;10.20;99.90
29295;DHT22;16305;48.566;8.846;2023-04-09T09:54:01;10.20;99.90
29295;DHT22;16305;48.566;8.846;2023-04-09T09:56:30;10.20;99.90
29295;DHT22;16305;48.566;8.846;2023-04-09T09:59:00;10.30;99.90
29295;DHT22;16305;48.566;8.846;2023-04-09T10:01:29;10.40;99.90
29295;DHT22;16305;48.566;8.846;2023-04-09T10:03:59;10.50;99.90
29295;DHT22;16305;48.566;8.846;2023-04-09T10:06:25;10.50;99.90
29295;DHT22;16305;48.566;8.846;2023-04-09T10:08:56;10.50;99.90
29295;DHT22;16305;48.566;8.846;2023-04-09T10:11:23;10.60;99.90
29295;DHT22;16305;48.566;8.846;2023-04-09T10:13:58;10.70;99.90
29295;DHT22;16305;48.566;8.846;2023-04-09T10:16:24;10.70;99.90
29295;DHT22;16305;48.566;8.846;2023-04-09T10:18:52;10.70;99.90
29295;DHT22;16305;48.566;8.846;2023-04-09T10:24:24;10.70;99.90
29295;DHT22;16305;48.566;8.846;2023-04-09T10:26:53;10.60;99.90
29295;DHT22;16305;48.566;8.846;2023-04-09T10:29:26;10.40;99.90
29295;DHT22;16305;48.566;8.846;2023-04-09T10:31:54;10.50;99.90
29295;DHT22;16305;48.566;8.846;2023-04-09T10:34:27;10.50;99.90
29295;DHT22;16305;48.566;8.846;2023-04-09T10:36:55;10.60;99.90
29295;DHT22;16305;48.566;8.846;2023-04-09T10:39:37;10.60;99.90
29295;DHT22;16305;48.566;8.846;2023-04-09T10:42:07;10.60;99.90
29295;DHT22;16305;48.566;8.846;2023-04-09T10:44:38;10.60;99.90
29295;DHT22;16305;48.566;8.846;2023-04-09T10:47:07;10.70;99.90
29295;DHT22;16305;48.566;8.846;2023-04-09T10:49:37;10.80;99.90
29295;DHT22;16305;48.566;8.846;2023-04-09T10:52:04;10.80;99.90
29295;DHT22;16305;48.566;8.846;2023-04-09T10:59:34;11.10;99.90
29295;DHT22;16305;48.566;8.846;2023-04-09T11:02:00;11.00;99.90
29295;DHT22;16305;48.566;8.846;2023-04-09T11:04:40;10.90;99.90
29295;DHT22;16305;48.566;8.846;2023-04-09T11:07:12;10.90;99.90
29295;DHT22;16305;48.566;8.846;2023-04-09T11:09:40;10.90;99.90
29295;DHT22;16305;48.566;8.846;2023-04-09T11:12:06;11.00;99.90
29295;DHT22;16305;48.566;8.846;2023-04-09T11:14:32;10.80;99.90
29295;DHT22;16305;48.566;8.846;2023-04-09T11:16:58;10.80;99.90
29295;DHT22;16305;48.566;8.846;2023-04-09T11:19:23;10.80;99.90
29295;DHT22;16305;48.566;8.846;2023-04-09T11:21:49;10.90;99.90
29295;DHT22;16305;48.566;8.846;2023-04-09T11:24:17;10.90;99.90
29295;DHT22;16305;48.566;8.846;2023-04-09T11:26:43;11.20;99.90
29295;DHT22;16305;48.566;8.846;2023-04-09T11:29:09;11.20;99.90
29295;DHT22;16305;48.566;8.846;2023-04-09T11:31:35;11.30;99.90
29295;DHT22;16305;48.566;8.846;2023-04-09T11:34:01;11.40;99.90
29295;DHT22;16305;48.566;8.846;2023-04-09T11:36:27;11.60;99.90
29295;DHT22;16305;48.566;8.846;2023-04-09T11:38:54;11.60;99.90
29295;DHT22;16305;48.566;8.846;2023-04-09T11:41:36;11.90;99.90
29295;DHT22;16305;48.566;8.846;2023-04-09T11:44:03;12.20;99.90
29295;DHT22;16305;48.566;8.846;2023-04-09T11:46:31;12.40;99.90
29295;DHT22;16305;48.566;8.846;2023-04-09T11:48:58;12.60;99.90
29295;DHT22;16305;48.566;8.846;2023-04-09T11:51:24;12.50;99.90
29295;DHT22;16305;48.566;8.846;2023-04-09T11:53:51;12.40;99.90
29295;DHT22;16305;48.566;8.846;2023-04-09T11:56:17;12.30;99.90
29295;DHT22;16305;48.566;8.846;2023-04-09T11:58:46;12.50;99.90
29295;DHT22;16305;48.566;8.846;2023-04-09T12:01:13;12.50;99.90
29295;DHT22;16305;48.566;8.846;2023-04-09T12:03:38;12.30;99.90
29295;DHT22;16305;48.566;8.846;2023-04-09T12:06:05;11.90;99.90
29295;DHT22;16305;48.566;8.846;2023-04-09T12:08:34;12.00;99.90
29295;DHT22;16305;48.566;8.846;2023-04-09T12:11:11;12.20;99.90
29295;DHT22;16305;48.566;8.846;2023-04-09T12:13:37;11.90;99.90
29295;DHT22;16305;48.566;8.846;2023-04-09T12:16:07;12.20;99.90
29295;DHT22;16305;48.566;8.846;2023-04-09T12:18:37;12.40;99.90
29295;DHT22;16305;48.566;8.846;2023-04-09T12:21:04;12.30;99.90
29295;DHT22;16305;48.566;8.846;2023-04-09T12:23:31;12.20;99.90
29295;DHT22;16305;48.566;8.846;2023-04-09T12:25:56;11.70;99.90
29295;DHT22;16305;48.566;8.846;2023-04-09T12:28:26;12.10;99.90
29295;DHT22;16305;48.566;8.846;2023-04-09T12:30:53;12.10;99.90
29295;DHT22;16305;48.566;8.846;2023-04-09T12:33:19;12.50;99.90
29295;DHT22;16305;48.566;8.846;2023-04-09T12:35:44;13.00;99.90
29295;DHT22;16305;48.566;8.846;2023-04-09T12:38:10;13.40;99.90
29295;DHT22;16305;48.566;8.846;2023-04-09T12:40:36;14.10;99.90
29295;DHT22;16305;48.566;8.846;2023-04-09T12:43:02;14.30;99.90
29295;DHT22;16305;48.566;8.846;2023-04-09T12:45:28;13.50;99.90
29295;DHT22;16305;48.566;8.846;2023-04-09T12:47:54;14.10;99.90
29295;DHT22;16305;48.566;8.846;2023-04-09T12:50:20;13.90;99.90
29295;DHT22;16305;48.566;8.846;2023-04-09T12:52:46;13.30;99.90
29295;DHT22;16305;48.566;8.846;2023-04-09T12:55:12;13.20;99.90
29295;DHT22;16305;48.566;8.846;2023-04-09T12:57:38;13.50;99.90
29295;DHT22;16305;48.566;8.846;2023-04-09T13:00:05;14.00;99.90
29295;DHT22;16305;48.566;8.846;2023-04-09T13:02:32;14.20;99.90
29295;DHT22;16305;48.566;8.846;2023-04-09T13:04:58;14.30;99.90
29295;DHT22;16305;48.566;8.846;2023-04-09T13:07:23;14.30;99.90
29295;DHT22;16305;48.566;8.846;2023-04-09T13:09:50;14.30;99.90
29295;DHT22;16305;48.566;8.846;2023-04-09T13:12:17;14.40;99.90
29295;DHT22;16305;48.566;8.846;2023-04-09T13:14:43;14.20;99.90
29295;DHT22;16305;48.566;8.846;2023-04-09T13:17:09;14.20;99.90
29295;DHT22;16305;48.566;8.846;2023-04-09T13:19:35;14.10;99.90
29295;DHT22;16305;48.566;8.846;2023-04-09T13:22:00;14.00;99.90
29295;DHT22;16305;48.566;8.846;2023-04-09T13:24:26;14.20;99.90
29295;DHT22;16305;48.566;8.846;2023-04-09T13:26:52;14.80;99.90
29295;DHT22;16305;48.566;8.846;2023-04-09T13:29:18;15.50;99.90
29295;DHT22;16305;48.566;8.846;2023-04-09T13:31:43;15.70;99.90
29295;DHT22;16305;48.566;8.846;2023-04-09T13:34:09;15.30;99.90
29295;DHT22;16305;48.566;8.846;2023-04-09T13:36:35;14.60;99.90
29295;DHT22;16305;48.566;8.846;2023-04-09T13:39:00;14.60;99.90
29295;DHT22;16305;48.566;8.846;2023-04-09T13:41:32;14.60;99.90
29295;DHT22;16305;48.566;8.846;2023-04-09T13:43:59;13.90;99.90
29295;DHT22;16305;48.566;8.846;2023-04-09T13:46:24;13.40;99.90
29295;DHT22;16305;48.566;8.846;2023-04-09T13:48:50;13.60;99.90
29295;DHT22;16305;48.566;8.846;2023-04-09T13:51:15;14.60;99.90
29295;DHT22;16305;48.566;8.846;2023-04-09T13:53:41;15.00;99.90
29295;DHT22;16305;48.566;8.846;2023-04-09T13:56:07;15.00;99.90
29295;DHT22;16305;48.566;8.846;2023-04-09T13:58:33;15.80;99.90
29295;DHT22;16305;48.566;8.846;2023-04-09T14:00:58;16.20;99.90
29295;DHT22;16305;48.566;8.846;2023-04-09T14:03:25;16.40;99.90
29295;DHT22;16305;48.566;8.846;2023-04-09T14:05:50;15.70;99.90
29295;DHT22;16305;48.566;8.846;2023-04-09T14:08:16;15.00;99.90
29295;DHT22;16305;48.566;8.846;2023-04-09T14:10:41;15.00;99.90
29295;DHT22;16305;48.566;8.846;2023-04-09T14:13:07;16.10;99.90
29295;DHT22;16305;48.566;8.846;2023-04-09T14:15:34;17.20;99.90
29295;DHT22;16305;48.566;8.846;2023-04-09T14:18:01;17.60;99.90
29295;DHT22;16305;48.566;8.846;2023-04-09T14:20:27;17.20;99.90
29295;DHT22;16305;48.566;8.846;2023-04-09T14:22:52;16.30;99.90
29295;DHT22;16305;48.566;8.846;2023-04-09T14:25:18;16.50;99.90
29295;DHT22;16305;48.566;8.846;2023-04-09T14:27:44;17.50;99.90
29295;DHT22;16305;48.566;8.846;2023-04-09T14:30:11;18.00;99.90
29295;DHT22;16305;48.566;8.846;2023-04-09T14:32:36;18.60;99.90
29295;DHT22;16305;48.566;8.846;2023-04-09T14:35:02;18.90;99.90
29295;DHT22;16305;48.566;8.846;2023-04-09T14:37:27;18.40;99.90
29295;DHT22;16305;48.566;8.846;2023-04-09T14:39:53;18.40;99.90
29295;DHT22;16305;48.566;8.846;2023-04-09T14:42:19;18.50;99.90
29295;DHT22;16305;48.566;8.846;2023-04-09T14:44:45;17.80;99.90
29295;DHT22;16305;48.566;8.846;2023-04-09T14:47:10;17.20;99.90
29295;DHT22;16305;48.566;8.846;2023-04-09T14:49:36;16.60;99.90
29295;DHT22;16305;48.566;8.846;2023-04-09T14:52:01;16.50;99.90
29295;DHT22;16305;48.566;8.846;2023-04-09T14:54:27;17.10;99.90
29295;DHT22;16305;48.566;8.846;2023-04-09T14:56:54;16.90;99.90
29295;DHT22;16305;48.566;8.846;2023-04-09T14:59:22;16.90;99.90
29295;DHT22;16305;48.566;8.846;2023-04-09T15:01:48;16.90;99.90
29295;DHT22;16305;48.566;8.846;2023-04-09T15:04:14;16.80;99.90
29295;DHT22;16305;48.566;8.846;2023-04-09T15:06:39;16.70;99.90
29295;DHT22;16305;48.566;8.846;2023-04-09T15:09:05;16.60;99.90
29295;DHT22;16305;48.566;8.846;2023-04-09T15:11:30;16.30;99.90
29295;DHT22;16305;48.566;8.846;2023-04-09T15:13:56;15.80;99.90
29295;DHT22;16305;48.566;8.846;2023-04-09T15:16:27;15.70;99.90
29295;DHT22;16305;48.566;8.846;2023-04-09T15:18:53;16.40;99.90
29295;DHT22;16305;48.566;8.846;2023-04-09T15:21:22;17.00;99.90
29295;DHT22;16305;48.566;8.846;2023-04-09T15:23:49;17.90;99.90
29295;DHT22;16305;48.566;8.846;2023-04-09T15:26:15;18.70;99.90
29295;DHT22;16305;48.566;8.846;2023-04-09T15:28:41;19.50;99.90
29295;DHT22;16305;48.566;8.846;2023-04-09T15:31:06;19.90;99.90
29295;DHT22;16305;48.566;8.846;2023-04-09T15:33:32;19.30;99.90
29295;DHT22;16305;48.566;8.846;2023-04-09T15:35:58;19.50;99.90
29295;DHT22;16305;48.566;8.846;2023-04-09T15:38:23;19.80;99.90
29295;DHT22;16305;48.566;8.846;2023-04-09T15:40:50;20.20;99.90
29295;DHT22;16305;48.566;8.846;2023-04-09T15:43:16;20.50;99.90
29295;DHT22;16305;48.566;8.846;2023-04-09T15:45:42;20.70;99.90
29295;DHT22;16305;48.566;8.846;2023-04-09T15:48:08;21.40;99.90
29295;DHT22;16305;48.566;8.846;2023-04-09T15:50:33;21.30;99.90